Time;durP1;ratioP1;P1;durP2;ratioP2;P2;SDS_P1;SDS_P2;PMS_P1;PMS_P2;Temp;Humidity;BMP_temperature;BMP_pressure;BME280_temperature;BME280_humidity;BME280_pressure;Samples;Min_cycle;Max_cycle;Signal;HPM_P1;HPM_P2
2022/03/29 00:00:53;;;;;;;29.33;15.55;;;;;;;10.78;49.32;95314.00;6290209;22;20015;-86
2022/03/29 00:03:18;;;;;;;34.53;15.38;;;;;;;11.66;48.59;95425.66;6287336;22;20026;-86
2022/03/29 00:05:44;;;;;;;27.15;14.10;;;;;;;9.19;48.00;95048.94;6289895;22;20389;-86
2022/03/29 00:08:09;;;;;;;32.88;14.30;;;;;;;9.31;47.90;95054.72;6290096;22;20255;-86
2022/03/29 00:10:35;;;;;;;27.02;13.27;;;;;;;9.80;48.10;95149.41;6288335;22;20018;-86
2022/03/29 00:13:00;;;;;;;27.17;14.95;;;;;;;11.41;48.02;95402.66;6289616;22;20007;-86
2022/03/29 00:15:28;;;;;;;35.03;14.35;;;;;;;10.28;48.66;95249.47;6287152;22;20003;-86
2022/03/29 00:17:54;;;;;;;30.30;13.90;;;;;;;11.69;48.28;95441.03;6287334;22;20051;-86
2022/03/29 00:20:21;;;;;;;42.53;14.77;;;;;;;9.63;48.30;95128.50;6288472;22;20018;-86
2022/03/29 00:22:47;;;;;;;27.95;13.55;;;;;;;11.77;48.03;95429.88;6287285;22;20529;-86
2022/03/29 00:25:14;;;;;;;28.58;13.50;;;;;;;11.74;48.19;95442.91;6288820;22;20031;-86
2022/03/29 00:27:41;;;;;;;31.83;14.75;;;;;;;9.90;48.70;95186.47;6288615;22;20762;-86
2022/03/29 00:30:11;;;;;;;35.03;14.20;;;;;;;10.90;48.84;95335.75;6286929;22;20019;-87
2022/03/29 00:32:37;;;;;;;37.25;14.20;;;;;;;11.11;49.51;95373.59;6289852;22;20019;-86
2022/03/29 00:35:03;;;;;;;30.13;13.98;;;;;;;10.54;50.31;95353.59;6289556;22;20007;-86
2022/03/29 00:37:28;;;;;;;32.50;13.40;;;;;;;10.67;50.93;95384.88;6289514;22;20018;-86
2022/03/29 00:39:54;;;;;;;34.38;14.75;;;;;;;10.99;50.49;95391.66;6287740;22;20015;-86
2022/03/29 00:42:19;;;;;;;29.95;13.80;;;;;;;10.45;49.95;95294.25;6288656;22;20014;-85
2022/03/29 00:44:45;;;;;;;39.67;14.80;;;;;;;10.66;50.11;95308.22;6288027;22;20458;-86
2022/03/29 00:47:11;;;;;;;34.22;14.43;;;;;;;10.43;49.80;95280.44;6290563;22;20014;-85
2022/03/29 00:49:36;;;;;;;28.63;14.00;;;;;;;11.16;50.13;95402.75;6287439;22;20015;-85
2022/03/29 00:52:04;;;;;;;29.60;14.18;;;;;;;10.17;50.22;95253.19;6288279;22;20011;-85
2022/03/29 00:54:32;;;;;;;32.72;15.15;;;;;;;9.04;50.39;95078.84;6288286;22;20128;-86
2022/03/29 00:56:59;;;;;;;26.98;14.07;;;;;;;10.11;49.43;95211.84;6287570;22;20548;-85
2022/03/29 00:59:25;;;;;;;35.83;15.18;;;;;;;6.51;49.82;94661.50;6286488;22;20046;-86
2022/03/29 01:01:51;;;;;;;29.38;15.05;;;;;;;9.48;49.52;95104.72;6288460;22;20010;-85
2022/03/29 01:04:17;;;;;;;32.33;14.23;;;;;;;9.59;49.82;95222.78;6287234;22;20015;-85
2022/03/29 01:06:44;;;;;;;34.50;14.55;;;;;;;8.48;50.40;94988.16;6287253;22;20019;-86
2022/03/29 01:09:11;;;;;;;32.67;14.07;;;;;;;8.93;50.45;95056.09;6287322;22;20014;-86
2022/03/29 01:11:38;;;;;;;26.45;13.98;;;;;;;10.71;50.87;95340.03;6289093;22;20358;-85
2022/03/29 01:14:04;;;;;;;31.58;13.90;;;;;;;10.42;50.42;95290.25;6287285;22;20014;-85
2022/03/29 01:19:17;;;;;;;30.50;13.85;;;;;;;10.49;51.20;95332.41;6290388;22;20204;-86
2022/03/29 01:22:01;;;;;;;28.83;15.15;;;;;;;9.65;51.06;95201.34;6290100;22;20028;-86
2022/03/29 01:24:28;;;;;;;33.28;14.10;;;;;;;10.73;51.18;95345.88;6288429;22;20181;-85
2022/03/29 01:26:58;;;;;;;33.53;13.68;;;;;;;10.46;52.26;95346.19;6288070;22;20019;-85
2022/03/29 01:29:23;;;;;;;30.73;14.20;;;;;;;10.63;52.33;95375.06;6288320;22;20042;-86
2022/03/29 01:31:50;;;;;;;30.55;15.30;;;;;;;9.29;52.19;95176.75;6290470;22;20117;-85
2022/03/29 01:34:20;;;;;;;33.58;15.52;;;;;;;10.53;52.18;95357.28;6291112;22;20091;-85
2022/03/29 01:36:46;;;;;;;36.75;16.88;;;;;;;9.78;52.38;95252.16;6289360;22;20071;-84
2022/03/29 01:39:12;;;;;;;31.67;15.57;;;;;;;9.88;51.98;95276.00;6290887;22;20412;-85
2022/03/29 01:41:38;;;;;;;29.17;15.43;;;;;;;10.40;52.14;95366.59;6291055;22;20011;-85
2022/03/29 01:44:08;;;;;;;32.97;14.65;;;;;;;9.70;52.43;95234.94;6287331;22;20007;-85
2022/03/29 01:46:34;;;;;;;38.08;15.43;;;;;;;10.26;52.42;95354.97;6287096;22;20179;-85
2022/03/29 01:49:00;;;;;;;27.30;13.73;;;;;;;10.15;52.13;95320.75;6287743;22;20098;-84
2022/03/29 01:51:27;;;;;;;30.08;15.05;;;;;;;9.56;52.71;95231.25;6287321;22;20243;-84
2022/03/29 01:53:57;;;;;;;31.77;14.85;;;;;;;8.09;52.63;95027.44;6287147;22;20007;-84
2022/03/29 01:56:28;;;;;;;31.58;14.45;;;;;;;7.60;52.64;94947.88;6287292;22;20454;-85
2022/03/29 01:58:54;;;;;;;26.65;14.18;;;;;;;9.57;52.69;95261.97;6290619;22;20011;-85
2022/03/29 02:01:19;;;;;;;33.55;13.30;;;;;;;9.38;52.25;95219.38;6294679;22;20103;-85
2022/03/29 02:03:45;;;;;;;26.30;14.25;;;;;;;9.74;52.07;95230.72;6287883;22;20014;-85
2022/03/29 02:06:10;;;;;;;33.80;14.63;;;;;;;8.89;52.37;95107.94;6287004;22;20358;-85
2022/03/29 02:08:36;;;;;;;30.45;13.73;;;;;;;9.16;52.61;95157.94;6287127;22;20027;-85
2022/03/29 02:11:02;;;;;;;31.15;15.65;;;;;;;8.88;53.19;95146.81;6287019;22;20480;-85
2022/03/29 02:13:27;;;;;;;25.92;13.35;;;;;;;9.59;53.51;95259.84;6289251;22;20485;-85
2022/03/29 02:15:53;;;;;;;28.45;14.88;;;;;;;9.53;53.14;95252.97;6287198;22;20033;-85
2022/03/29 02:18:18;;;;;;;34.63;15.13;;;;;;;9.10;54.33;95231.22;6287303;22;20207;-85
2022/03/29 02:20:44;;;;;;;25.42;13.90;;;;;;;9.69;54.13;95310.94;6287290;22;20015;-85
2022/03/29 02:23:14;;;;;;;29.92;14.00;;;;;;;9.79;54.27;95306.72;6286171;22;20757;-85
2022/03/29 02:25:40;;;;;;;38.20;14.32;;;;;;;8.83;53.34;95128.31;6289194;22;20524;-85
2022/03/29 02:28:06;;;;;;;27.85;14.15;;;;;;;9.68;53.98;95279.47;6286950;22;20374;-85
2022/03/29 02:30:35;;;;;;;31.33;14.32;;;;;;;9.88;53.89;95319.19;6285321;22;20022;-84
2022/03/29 02:33:05;;;;;;;43.45;15.32;;;;;;;7.39;53.29;94893.47;6286921;22;20057;-85
2022/03/29 02:35:31;;;;;;;50.15;15.35;;;;;;;7.09;53.35;94886.25;6288681;22;20007;-84
2022/03/29 02:37:57;;;;;;;42.92;15.60;;;;;;;9.10;53.90;95188.91;6287245;22;20094;-85
2022/03/29 02:40:22;;;;;;;26.98;13.80;;;;;;;9.20;54.00;95230.44;6286969;22;20010;-85
2022/03/29 02:42:52;;;;;;;35.88;14.85;;;;;;;8.63;53.87;95116.91;6289672;22;20192;-85
2022/03/29 02:45:21;;;;;;;32.33;15.02;;;;;;;9.13;54.12;95212.19;6287080;22;20008;-85
2022/03/29 02:47:49;;;;;;;42.85;16.25;;;;;;;9.49;54.85;95300.34;6288119;22;20007;-85
2022/03/29 02:50:16;;;;;;;33.38;14.65;;;;;;;8.86;55.02;95228.25;6288756;22;20876;-84
2022/03/29 02:52:54;;;;;;;32.88;14.98;;;;;;;8.74;55.16;95188.06;6287526;22;20015;-84
2022/03/29 02:55:25;;;;;;;31.90;15.27;;;;;;;8.70;54.85;95175.59;6287153;22;20391;-83
2022/03/29 02:57:50;;;;;;;31.52;15.15;;;;;;;6.74;54.94;94884.25;6287165;22;20203;-85
2022/03/29 03:00:18;;;;;;;29.55;14.88;;;;;;;8.39;55.55;95178.16;6289411;22;20438;-84
2022/03/29 03:02:45;;;;;;;34.38;16.48;;;;;;;6.70;55.15;94926.16;6286488;22;20011;-85
2022/03/29 03:05:11;;;;;;;40.67;16.35;;;;;;;7.61;54.78;94992.50;6286850;22;20446;-84
2022/03/29 03:07:38;;;;;;;41.05;16.80;;;;;;;4.70;54.91;94539.38;6286470;22;20018;-84
2022/03/29 03:10:05;;;;;;;38.65;16.05;;;;;;;9.40;55.45;95287.91;6286148;22;20090;-84
2022/03/29 03:12:42;;;;;;;39.10;15.95;;;;;;;9.38;55.35;95287.38;6286573;22;20050;-84
2022/03/29 03:15:09;;;;;;;41.55;16.52;;;;;;;9.46;55.07;95292.94;6293746;22;20049;-86
2022/03/29 03:17:35;;;;;;;41.20;15.75;;;;;;;9.39;55.24;95300.34;6292228;22;20011;-84
2022/03/29 03:20:01;;;;;;;34.80;17.25;;;;;;;7.87;55.31;95045.34;6286427;22;20368;-84
2022/03/29 03:22:26;;;;;;;35.58;16.92;;;;;;;9.49;55.04;95283.69;6285849;22;20011;-85
2022/03/29 03:24:52;;;;;;;46.00;16.05;;;;;;;8.63;55.22;95197.00;6285574;22;20519;-84
2022/03/29 03:27:18;;;;;;;38.60;16.08;;;;;;;8.00;55.83;95108.28;6284702;22;20101;-84
2022/03/29 03:29:46;;;;;;;45.97;16.95;;;;;;;8.54;55.89;95187.22;6286756;22;20315;-85
2022/03/29 03:32:13;;;;;;;33.65;17.17;;;;;;;9.28;55.71;95288.94;6286508;22;20441;-85
2022/03/29 03:34:39;;;;;;;42.05;16.92;;;;;;;8.02;55.43;95082.38;6288466;22;20012;-85
2022/03/29 03:37:05;;;;;;;39.25;16.90;;;;;;;9.15;56.12;95283.38;6286660;22;20022;-85
2022/03/29 03:39:34;;;;;;;38.38;15.88;;;;;;;8.39;56.37;95206.47;6287774;22;20007;-85
2022/03/29 03:42:06;;;;;;;41.05;17.30;;;;;;;8.28;56.56;95197.66;6285067;22;20344;-85
2022/03/29 03:44:32;;;;;;;49.30;16.95;;;;;;;7.89;56.33;95115.34;6288300;22;20007;-85
2022/03/29 03:47:00;;;;;;;43.28;17.88;;;;;;;8.40;56.46;95179.75;6284464;22;20045;-84
2022/03/29 03:49:26;;;;;;;48.38;20.15;;;;;;;7.09;56.29;94966.16;6290254;22;20011;-85
2022/03/29 03:51:51;;;;;;;48.17;19.88;;;;;;;8.75;56.10;95217.94;6287940;22;20031;-85
2022/03/29 03:54:17;;;;;;;47.55;17.83;;;;;;;7.42;56.33;95032.78;6287928;22;20015;-85
2022/03/29 03:56:42;;;;;;;44.25;18.13;;;;;;;8.33;56.52;95186.34;6289863;22;20170;-85
2022/03/29 03:59:08;;;;;;;41.92;18.52;;;;;;;8.06;56.54;95123.06;6288442;22;20011;-84
2022/03/29 04:01:36;;;;;;;38.90;17.75;;;;;;;9.10;56.33;95289.44;6287701;22;20041;-85
2022/03/29 04:04:02;;;;;;;40.78;18.70;;;;;;;8.51;56.01;95185.88;6289769;22;20031;-84
2022/03/29 04:06:28;;;;;;;51.10;18.10;;;;;;;8.45;56.36;95195.66;6290343;22;20449;-85
2022/03/29 04:08:53;;;;;;;36.65;17.83;;;;;;;8.82;56.31;95242.28;6287715;22;20614;-84
2022/03/29 04:11:19;;;;;;;50.47;22.02;;;;;;;8.56;56.45;95206.22;6292093;22;20007;-85
2022/03/29 04:13:45;;;;;;;49.88;20.20;;;;;;;8.50;56.86;95210.72;6289069;22;20045;-84
2022/03/29 04:16:10;;;;;;;41.40;19.23;;;;;;;7.89;57.21;95188.47;6289567;22;20389;-84
2022/03/29 04:18:36;;;;;;;52.55;19.80;;;;;;;7.15;56.86;95006.53;6294237;22;20011;-84
2022/03/29 04:21:01;;;;;;;69.90;22.48;;;;;;;8.52;56.79;95204.13;6293199;22;20015;-84
2022/03/29 04:23:27;;;;;;;74.28;24.30;;;;;;;8.52;56.76;95213.91;6287659;22;20007;-85
2022/03/29 04:25:54;;;;;;;62.78;22.55;;;;;;;7.88;56.55;95097.13;6288018;22;20071;-84
2022/03/29 04:28:20;;;;;;;52.15;22.55;;;;;;;8.47;57.09;95219.94;6285617;22;20478;-85
2022/03/29 04:30:46;;;;;;;69.75;22.45;;;;;;;8.46;57.53;95254.59;6273854;22;20240;-85
2022/03/29 04:33:12;;;;;;;56.33;21.45;;;;;;;6.78;56.99;94959.94;6285635;22;20019;-86
2022/03/29 04:35:37;;;;;;;48.53;21.50;;;;;;;8.03;57.02;95168.47;6281963;22;20053;-85
2022/03/29 04:38:03;;;;;;;59.55;25.55;;;;;;;6.95;56.15;94951.81;6280922;22;20090;-84
2022/03/29 04:40:28;;;;;;;54.97;23.05;;;;;;;7.85;56.25;95097.66;6278836;22;20007;-85
2022/03/29 04:42:54;;;;;;;74.97;25.23;;;;;;;8.31;56.76;95188.47;6278630;22;20015;-84
2022/03/29 04:45:19;;;;;;;53.95;22.95;;;;;;;7.46;56.77;95025.94;6271423;22;20649;-85
2022/03/29 04:47:47;;;;;;;58.95;23.40;;;;;;;8.26;56.55;95151.41;6271078;22;20076;-85
2022/03/29 04:50:14;;;;;;;72.90;23.25;;;;;;;8.02;56.27;95101.66;6269917;22;20493;-86
2022/03/29 04:52:44;;;;;;;69.82;24.92;;;;;;;9.05;56.20;95264.81;6273660;22;20104;-86
2022/03/29 04:55:13;;;;;;;76.53;25.90;;;;;;;8.89;56.23;95242.81;6278011;22;20031;-85
2022/03/29 04:57:41;;;;;;;78.57;28.05;;;;;;;7.46;55.56;94987.16;6274845;22;20520;-86
2022/03/29 05:00:12;;;;;;;71.00;26.52;;;;;;;6.61;55.79;94874.16;6277065;22;20007;-87
2022/03/29 05:02:43;;;;;;;68.80;26.77;;;;;;;8.75;56.22;95236.44;6274705;22;20166;-86
2022/03/29 05:05:10;;;;;;;50.25;24.10;;;;;;;5.59;55.05;94754.22;6277763;22;20015;-85
2022/03/29 05:07:38;;;;;;;48.63;22.80;;;;;;;7.15;55.31;95006.53;6275090;22;20019;-86
2022/03/29 05:10:05;;;;;;;74.70;24.20;;;;;;;7.53;55.23;95015.94;6277576;22;20011;-85
2022/03/29 05:12:44;;;;;;;66.13;24.85;;;;;;;6.29;54.86;94798.66;6267704;22;20429;-84
2022/03/29 05:15:12;;;;;;;53.95;22.15;;;;;;;6.32;55.04;94847.41;6275491;22;20090;-87
2022/03/29 05:17:39;;;;;;;50.55;20.98;;;;;;;6.70;54.46;94859.47;6276018;22;20038;-86
2022/03/29 05:20:06;;;;;;;50.90;20.98;;;;;;;7.53;54.57;94969.25;6272912;22;20615;-86
2022/03/29 05:22:39;;;;;;;46.42;19.55;;;;;;;9.42;53.98;95283.13;6275888;22;20450;-85
2022/03/29 05:25:05;;;;;;;41.67;20.67;;;;;;;7.35;54.09;94996.06;6277383;22;20044;-85
2022/03/29 05:27:31;;;;;;;49.08;19.83;;;;;;;7.60;54.28;95032.34;6275006;22;20015;-86
2022/03/29 05:29:56;;;;;;;51.20;21.27;;;;;;;7.18;53.39;94918.97;6269983;22;20119;-86
2022/03/29 05:32:22;;;;;;;45.90;20.73;;;;;;;8.90;53.35;95179.09;6272619;22;20295;-84
2022/03/29 05:34:47;;;;;;;57.03;21.65;;;;;;;8.83;53.27;95143.38;6275255;22;20007;-86
2022/03/29 05:37:14;;;;;;;48.53;21.65;;;;;;;9.80;53.00;95274.69;6273681;22;20489;-85
2022/03/29 05:39:41;;;;;;;44.70;19.08;;;;;;;9.52;52.01;95222.28;6269559;22;20249;-85
2022/03/29 05:42:08;;;;;;;40.72;19.95;;;;;;;7.44;52.63;94915.38;6274092;22;20530;-84
2022/03/29 05:44:38;;;;;;;49.55;19.73;;;;;;;9.66;52.62;95279.72;6270785;22;20015;-86
2022/03/29 05:49:50;;;;;;;46.35;21.17;;;;;;;6.79;52.22;94806.00;6270961;22;20088;-85
2022/03/29 05:52:16;;;;;;;52.13;20.63;;;;;;;5.51;51.97;94626.59;6267061;22;20116;-85
2022/03/29 05:54:45;;;;;;;47.30;21.13;;;;;;;5.90;51.45;94615.78;6263996;22;20692;-86
2022/03/29 05:57:16;;;;;;;51.38;20.08;;;;;;;8.50;51.47;95020.41;6268978;22;20014;-84
2022/03/29 05:59:42;;;;;;;42.83;20.90;;;;;;;6.37;50.96;94692.81;6272002;22;20072;-85
2022/03/29 06:02:08;;;;;;;49.30;19.48;;;;;;;10.34;50.71;95276.75;6258807;22;20021;-85
2022/03/29 06:04:35;;;;;;;67.35;31.58;;;;;;;5.18;50.81;94491.06;6266253;22;20484;-86
2022/03/29 06:07:01;;;;;;;64.82;29.60;;;;;;;9.82;50.86;95219.59;6265502;22;20133;-85
2022/03/29 06:09:27;;;;;;;65.63;33.38;;;;;;;9.95;51.34;95234.13;6269594;22;20132;-85
2022/03/29 06:11:53;;;;;;;48.00;22.00;;;;;;;8.24;51.68;94984.44;6270623;22;20449;-86
2022/03/29 06:14:18;;;;;;;45.92;20.08;;;;;;;5.73;50.91;94555.41;6271784;22;20039;-86
2022/03/29 06:16:44;;;;;;;54.03;21.00;;;;;;;8.93;50.77;95044.72;6273527;22;20651;-86
2022/03/29 06:19:10;;;;;;;41.53;19.23;;;;;;;10.17;51.17;95239.13;6272231;22;20011;-87
2022/03/29 06:21:37;;;;;;;44.95;20.38;;;;;;;10.63;50.47;95274.28;6266527;22;20411;-86
2022/03/29 06:24:05;;;;;;;50.97;20.52;;;;;;;9.19;50.49;95017.19;6274141;22;20158;-87
2022/03/29 06:26:31;;;;;;;46.53;19.70;;;;;;;6.02;50.50;94568.97;6274773;22;20359;-86
2022/03/29 06:28:58;;;;;;;51.58;20.92;;;;;;;6.55;49.79;94602.00;6272453;22;20650;-87
2022/03/29 06:31:24;;;;;;;54.47;19.92;;;;;;;7.84;49.65;94777.41;6273338;22;20484;-86
2022/03/29 06:33:50;;;;;;;45.40;20.90;;;;;;;10.52;49.72;95183.38;6275789;22;20011;-86
2022/03/29 06:36:17;;;;;;;46.25;20.48;;;;;;;10.46;49.57;95136.72;6271518;22;20017;-86
2022/03/29 06:38:44;;;;;;;54.63;20.70;;;;;;;10.88;49.55;95202.53;6274991;22;20246;-87
2022/03/29 06:41:10;;;;;;;49.38;20.92;;;;;;;11.27;48.90;95271.59;6270178;22;20031;-87
2022/03/29 06:43:36;;;;;;;55.67;21.10;;;;;;;8.93;49.59;94899.25;6272178;22;20092;-87
2022/03/29 06:46:03;;;;;;;48.13;20.95;;;;;;;8.97;49.13;94893.19;6247286;22;20015;-87
2022/03/29 06:48:29;;;;;;;54.85;22.65;;;;;;;9.84;49.04;94975.66;6277660;22;20007;-86
2022/03/29 06:50:55;;;;;;;71.00;22.85;;;;;;;11.17;48.64;95184.03;6276672;22;20037;-85
2022/03/29 06:53:20;;;;;;;51.45;22.67;;;;;;;9.42;48.21;94909.94;6276076;22;20492;-87
2022/03/29 06:55:46;;;;;;;47.40;20.58;;;;;;;10.30;47.66;95050.38;6275753;22;20500;-86
2022/03/29 06:58:12;;;;;;;49.95;18.42;;;;;;;9.92;47.72;94967.09;6269341;22;20517;-87
2022/03/29 07:00:39;;;;;;;48.67;20.02;;;;;;;8.26;47.60;94740.06;6279195;22;20479;-88
2022/03/29 07:03:05;;;;;;;44.15;19.13;;;;;;;10.87;47.43;95078.13;6286424;22;20836;-89
2022/03/29 07:05:30;;;;;;;49.22;21.13;;;;;;;9.32;47.32;94846.44;6281014;22;20015;-88
2022/03/29 07:07:56;;;;;;;42.78;18.17;;;;;;;7.77;47.32;94613.22;6279821;22;20741;-87
2022/03/29 07:13:05;;;;;;;42.10;19.55;;;;;;;7.56;47.15;94572.88;6273175;22;20026;-87
2022/03/29 07:15:33;;;;;;;61.70;20.67;;;;;;;7.48;47.40;94525.94;6276327;22;20003;-86
2022/03/29 07:17:59;;;;;;;60.47;21.42;;;;;;;10.34;48.02;94999.22;6278216;22;20102;-88
2022/03/29 07:20:25;;;;;;;50.03;20.45;;;;;;;7.46;46.88;94540.47;6275692;22;20007;-88
2022/03/29 07:22:51;;;;;;;50.97;19.05;;;;;;;11.81;47.23;95212.25;6280097;22;20033;-87
2022/03/29 07:25:19;;;;;;;43.67;19.92;;;;;;;8.59;48.21;94780.94;6280986;22;20437;-87
2022/03/29 07:27:46;;;;;;;59.10;21.30;;;;;;;9.80;48.17;94953.41;6280942;22;20026;-87
2022/03/29 07:30:15;;;;;;;50.38;18.88;;;;;;;11.87;46.65;95259.75;6280838;22;20065;-86
2022/03/29 07:32:51;;;;;;;47.92;20.10;;;;;;;12.34;46.17;95229.00;6280885;22;20074;-87
2022/03/29 07:35:20;;;;;;;61.17;19.55;;;;;;;7.86;46.23;94508.63;6283190;22;20413;-89
2022/03/29 07:37:46;;;;;;;41.63;17.92;;;;;;;8.49;45.88;94596.78;6280843;22;20414;-88
2022/03/29 07:40:14;;;;;;;43.80;17.10;;;;;;;11.77;45.57;95070.38;6280872;22;20067;-87
2022/03/29 07:42:40;;;;;;;56.63;18.45;;;;;;;9.74;44.80;94785.81;6276399;22;20120;-87
2022/03/29 07:45:11;;;;;;;45.83;18.20;;;;;;;10.26;44.88;94816.13;6283474;22;20111;-86
2022/03/29 07:47:37;;;;;;;42.38;17.50;;;;;;;12.77;44.77;95165.94;6277637;22;20019;-86
2022/03/29 07:50:07;;;;;;;37.65;15.90;;;;;;;11.40;45.02;94952.31;6271130;22;20794;-85
2022/03/29 07:52:37;;;;;;;39.67;15.90;;;;;;;8.24;43.86;94485.16;6274150;22;20022;-87
2022/03/29 07:55:10;;;;;;;35.83;16.70;;;;;;;9.30;43.40;94627.13;6272202;22;20456;-86
2022/03/29 07:57:36;;;;;;;45.55;18.13;;;;;;;8.78;43.65;94522.81;6269344;22;20106;-83
2022/03/29 08:00:31;;;;;;;37.08;16.65;;;;;;;13.21;43.65;95186.09;6271220;22;20119;-85
2022/03/29 08:02:48;;;;;;;40.95;16.55;;;;;;;12.27;43.50;95034.44;6271669;22;20007;-86
2022/03/29 08:05:14;;;;;;;31.52;16.15;;;;;;;11.61;43.14;94935.06;6276947;22;20381;-87
2022/03/29 08:07:41;;;;;;;29.20;14.85;;;;;;;9.44;42.86;94665.09;6273950;22;20011;-87
2022/03/29 08:10:07;;;;;;;39.20;16.02;;;;;;;8.16;43.35;94443.50;6275573;22;20626;-86
2022/03/29 08:12:34;;;;;;;32.63;15.32;;;;;;;8.91;43.16;94518.75;6272357;22;20011;-86
2022/03/29 08:14:59;;;;;;;32.85;16.10;;;;;;;11.61;42.84;94910.38;6275771;22;20081;-85
2022/03/29 08:17:27;;;;;;;36.28;15.70;;;;;;;13.17;42.72;95153.94;6265289;22;20414;-87
2022/03/29 08:20:00;;;;;;;30.15;14.73;;;;;;;11.81;42.52;94917.31;6277732;22;20007;-83
2022/03/29 08:22:26;;;;;;;28.40;15.10;;;;;;;9.67;42.82;94531.97;6266854;22;20011;-85
2022/03/29 08:24:52;;;;;;;35.17;14.27;;;;;;;13.83;43.10;95171.50;6270363;22;20019;-83
2022/03/29 08:27:17;;;;;;;31.55;13.60;;;;;;;12.79;43.23;95038.72;6273795;22;20179;-83
2022/03/29 08:29:43;;;;;;;40.75;13.75;;;;;;;12.69;42.65;95021.03;6271819;22;20517;-85
2022/03/29 08:32:09;;;;;;;35.17;12.90;;;;;;;11.35;42.10;94761.25;6270636;22;20015;-84
2022/03/29 08:34:34;;;;;;;36.42;13.40;;;;;;;12.53;42.14;94944.41;6272779;22;20088;-84
2022/03/29 08:37:00;;;;;;;28.90;13.68;;;;;;;13.84;41.74;95120.56;6273224;22;20083;-85
2022/03/29 08:42:32;;;;;;;30.40;9.27;;;;;;;13.04;39.60;95011.69;6266365;22;20861;-88
2022/03/29 08:45:00;;;;;;;;;;;;;;;14.35;37.04;95151.59;6277303;22;20023;-86
2022/03/29 08:47:26;;;;;;;19.95;6.07;;;;;;;13.78;36.96;95068.44;6279884;22;20666;-87
2022/03/29 08:49:52;;;;;;;32.33;8.02;;;;;;;12.60;37.63;94912.88;6273452;22;20033;-86
2022/03/29 08:52:20;;;;;;;40.65;7.95;;;;;;;14.03;38.31;95077.03;6272253;22;20764;-85
2022/03/29 08:54:46;;;;;;;25.55;11.00;;;;;;;12.98;39.33;94894.91;6283888;22;20102;-83
2022/03/29 08:57:15;;;;;;;19.85;6.35;;;;;;;11.54;37.03;94726.69;6278345;22;20038;-82
2022/03/29 08:59:42;;;;;;;22.30;8.02;;;;;;;10.20;37.15;94476.22;6271898;22;20007;-83
2022/03/29 09:02:12;;;;;;;18.23;6.72;;;;;;;14.55;38.52;95113.84;6270972;22;20045;-83
2022/03/29 09:04:41;;;;;;;18.90;8.10;;;;;;;13.09;37.08;94865.16;6271620;22;20015;-83
2022/03/29 09:07:07;;;;;;;31.85;8.32;;;;;;;14.70;37.46;95094.06;6275328;22;20014;-82
2022/03/29 09:09:41;;;;;;;25.30;10.88;;;;;;;14.97;37.94;95103.84;6277446;22;20019;-82
2022/03/29 09:12:14;;;;;;;25.75;9.30;;;;;;;14.96;37.94;95099.59;6277470;22;20007;-83
2022/03/29 09:14:57;;;;;;;22.35;9.63;;;;;;;14.55;37.54;95033.78;6270632;22;20003;-83
2022/03/29 09:17:33;;;;;;;28.63;10.02;;;;;;;14.87;37.61;95085.41;6270624;22;20094;-82
2022/03/29 09:20:02;;;;;;;18.77;8.50;;;;;;;14.21;37.20;94967.56;6277784;22;20007;-85
2022/03/29 09:22:35;;;;;;;25.48;8.77;;;;;;;14.59;36.91;95015.28;6275545;22;20039;-83
2022/03/29 09:25:01;;;;;;;17.15;8.18;;;;;;;14.24;36.83;94955.50;6273566;22;20026;-85
2022/03/29 09:27:27;;;;;;;28.85;8.73;;;;;;;14.41;36.32;94971.69;6278273;22;20007;-84
2022/03/29 09:30:07;;;;;;;25.42;7.80;;;;;;;14.94;37.17;95043.84;6280293;22;20015;-83
2022/03/29 09:32:33;;;;;;;29.77;8.35;;;;;;;14.36;36.18;94946.97;6287180;22;20007;-84
2022/03/29 09:35:08;;;;;;;27.13;6.57;;;;;;;14.62;35.78;95038.72;6282739;22;20034;-85
2022/03/29 09:37:37;;;;;;;29.60;6.32;;;;;;;14.61;35.44;95027.25;6279966;22;20071;-86
2022/03/29 09:40:05;;;;;;;30.40;9.05;;;;;;;14.37;35.97;94967.22;6275869;22;20451;-87
2022/03/29 09:42:34;;;;;;;23.77;6.68;;;;;;;14.90;36.04;94992.13;6265136;22;20430;-86
2022/03/29 09:44:59;;;;;;;24.88;8.55;;;;;;;13.18;36.71;94705.53;6275441;22;20019;-87
2022/03/29 09:47:27;;;;;;;26.58;8.43;;;;;;;15.30;35.48;95026.91;6280374;22;20347;-87
2022/03/29 09:50:20;;;;;;;34.95;9.32;;;;;;;11.91;35.31;94489.34;6273912;22;20034;-85
2022/03/29 09:52:45;;;;;;;31.55;8.73;;;;;;;14.61;35.26;94949.06;6268770;22;20772;-86
2022/03/29 09:55:38;;;;;;;23.73;8.10;;;;;;;11.42;35.13;94381.22;6272550;22;20317;-87
2022/03/29 09:58:14;;;;;;;28.40;6.68;;;;;;;13.93;33.85;94762.66;6275994;22;20136;-86
2022/03/29 10:00:40;;;;;;;26.70;6.65;;;;;;;11.68;33.99;94423.94;6278284;22;20300;-87
2022/03/29 10:03:10;;;;;;;39.70;12.23;;;;;;;12.90;33.76;94672.03;6273184;22;20419;-87
2022/03/29 10:05:39;;;;;;;28.45;6.97;;;;;;;13.43;34.78;94656.97;6273254;22;20011;-86
2022/03/29 10:11:26;;;;;;;23.55;6.53;;;;;;;11.52;34.51;94388.94;6278483;22;20063;-87
2022/03/29 10:13:57;;;;;;;22.42;6.07;;;;;;;13.40;33.87;94648.84;6280437;22;20378;-86
2022/03/29 10:16:23;;;;;;;33.88;7.05;;;;;;;14.92;32.92;94882.34;6278085;22;20484;-85
2022/03/29 10:18:49;;;;;;;24.15;7.35;;;;;;;13.63;33.49;94601.66;6276135;22;20065;-86
2022/03/29 10:21:38;;;;;;;29.77;6.72;;;;;;;15.82;34.20;95074.22;6278556;22;20041;-85
2022/03/29 10:24:12;;;;;;;27.48;7.07;;;;;;;11.75;34.06;94387.94;6276605;22;20123;-86
2022/03/29 10:26:39;;;;;;;20.83;6.43;;;;;;;12.16;33.11;94305.41;6245825;22;20019;-85
2022/03/29 10:29:11;;;;;;;28.00;7.20;;;;;;;15.51;32.67;94821.38;6250969;22;20394;-85
2022/03/29 10:31:48;;;;;;;27.52;6.80;;;;;;;14.26;32.17;94590.59;6269294;22;20076;-85
2022/03/29 10:34:24;;;;;;;42.17;8.38;;;;;;;14.62;32.60;94695.22;6266190;22;20181;-84
2022/03/29 10:37:18;;;;;;;36.55;8.43;;;;;;;16.72;32.77;95004.19;6271920;22;20007;-84
2022/03/29 10:39:47;;;;;;;34.80;7.55;;;;;;;14.43;32.09;94692.03;6275191;22;20011;-83
2022/03/29 10:42:44;;;;;;;25.88;7.22;;;;;;;14.80;31.80;94732.66;6273192;22;20780;-84
2022/03/29 10:45:23;;;;;;;40.60;7.10;;;;;;;13.39;32.22;94530.84;6277269;22;20096;-84
2022/03/29 10:48:01;;;;;;;32.33;6.75;;;;;;;17.40;30.93;95000.59;6268862;22;20092;-82
2022/03/29 10:51:05;;;;;;;42.67;7.18;;;;;;;17.62;29.42;94997.72;6272263;22;20011;-83
2022/03/29 10:53:47;;;;;;;29.38;6.70;;;;;;;17.59;29.44;94936.69;6181049;23;20389;-82
2022/03/29 10:56:15;;;;;;;44.30;6.88;;;;;;;17.81;27.86;94916.06;6153131;23;20012;-84
2022/03/29 10:59:02;;;;;;;43.33;7.43;;;;;;;18.58;27.57;94976.50;6222001;22;20145;-82
2022/03/29 11:01:35;;;;;;;26.25;6.28;;;;;;;18.13;27.22;94850.97;6272913;22;20007;-82
2022/03/29 11:04:27;;;;;;;21.27;6.43;;;;;;;18.76;28.03;94922.31;6275069;22;20041;-84
2022/03/29 11:07:04;;;;;;;28.10;7.00;;;;;;;19.32;27.95;94964.88;6274467;22;20015;-83
2022/03/29 11:09:30;;;;;;;36.38;6.43;;;;;;;18.54;27.68;94929.91;6277016;22;20015;-84
2022/03/29 11:11:56;;;;;;;38.28;8.48;;;;;;;18.33;27.76;94862.81;6274750;22;20019;-82
2022/03/29 11:14:33;;;;;;;19.25;5.28;;;;;;;18.73;27.16;94946.34;6277948;22;20744;-85
2022/03/29 11:17:14;;;;;;;29.70;6.13;;;;;;;18.73;28.46;94949.03;6273315;22;20045;-83
2022/03/29 11:19:46;;;;;;;34.17;6.50;;;;;;;18.68;28.57;94939.31;6277829;22;20083;-86
2022/03/29 11:22:30;;;;;;;21.23;6.10;;;;;;;18.29;28.41;94945.13;6279946;22;20017;-85
2022/03/29 11:24:59;;;;;;;23.17;5.97;;;;;;;17.88;28.86;94922.50;6278097;22;20023;-84
2022/03/29 11:27:33;;;;;;;26.05;5.70;;;;;;;16.04;29.25;94645.38;6277091;22;20026;-86
2022/03/29 11:30:01;;;;;;;29.92;6.00;;;;;;;13.84;29.06;94339.59;6284991;22;20782;-86
2022/03/29 11:32:27;;;;;;;19.60;5.78;;;;;;;13.80;28.94;94341.34;6278101;22;20104;-86
2022/03/29 11:34:58;;;;;;;18.23;5.03;;;;;;;17.24;29.10;94906.53;6281443;22;20725;-86
2022/03/29 11:37:27;;;;;;;23.30;6.05;;;;;;;17.20;30.63;94924.38;6282178;22;20037;-84
2022/03/29 11:39:53;;;;;;;33.88;7.55;;;;;;;17.14;30.89;94911.47;6280846;22;20507;-84
2022/03/29 11:42:19;;;;;;;22.35;5.70;;;;;;;16.94;30.31;94843.31;6279050;22;20019;-85
2022/03/29 11:44:49;;;;;;;21.63;6.07;;;;;;;17.77;30.43;94907.13;6276088;22;20503;-86